Dati Storici

Data ora Umidita' aria (%) Temperatura aria (°C) Rad globale (W/m²) Gonioanemometro (°) Tacoanemometro (m/s) Pioggia (mm)
20-10-2012 13:20 71.4 % 17.806 485.043 111.387 0.761 0
20-10-2012 13:10 71 % 18.359 487.394 68.482 0.521 0
20-10-2012 13:00 71.8 % 17.252 498.534 32.273 0.918 0
20-10-2012 12:50 72.8 % 16.929 506.151 17.274 0.565 0
20-10-2012 12:40 73.1 % 17 499.877 89.243 1.374 0
20-10-2012 12:30 73.1 % 16.93 496.531 116.438 1.451 0
20-10-2012 12:20 71.4 % 17.486 504.269 125.358 0.639 0
20-10-2012 12:10 70.8 % 17.236 491.451 178.57 0.931 0
20-10-2012 12:00 72.3 % 17.098 479.521 89.95 0.607 0
20-10-2012 11:50 74.5 % 16.755 463.191 45.776 0.564 0
20-10-2012 11:40 76.7 % 16.758 452.758 181.456 0.198 0
20-10-2012 11:30 81.2 % 15.608 447.689 275.745 0.481 0
20-10-2012 11:20 85.9 % 14.554 421.671 23.548 0.58 0
20-10-2012 11:10 91.6 % 13.707 399.822 65.404 0.415 0
20-10-2012 11:00 91.7 % 12.121 277.456 52.553 0.788 0
20-10-2012 10:50 93.8 % 12.503 221.884 121.797 -0.013 0
20-10-2012 10:40 94.1 % 12.184 206.232 89.535 0.731 0
20-10-2012 10:30 93.9 % 11.69 232.145 66.866 0.718 0
20-10-2012 10:20 94.3 % 11.426 192.191 343.476 0.248 0
20-10-2012 10:10 94.5 % 11.239 199.75 352.119 0.057 0

I dati sono presentati in modo automatico a scopo informativo. In seguito a verifica i dati possono subire modifiche o essere invalidati e non riportati negli archivi definitivi.